NCAR-RAP Real-Time Weather Data

Output produced by METARs form (26 May 2022  08:15 UTC)
found at http://weather.rap.ucar.edu/surface/
 
KDEN 260753Z 19010KT 10SM FEW220 12/M01 A3004 RMK AO2 SLP117 T01171011
KDEN 260653Z 17010KT 10SM FEW220 08/01 A3005 RMK AO2 SLP127 T00830006 402170044
KDEN 260553Z 17009KT 10SM FEW220 08/01 A3004 RMK AO2 SLP130 T00830011 10217 20083 51013
KDEN 260453Z 17009KT 10SM CLR 09/01 A3003 RMK AO2 SLP125 T00940011
KDEN 260353Z 15007KT 10SM CLR 12/01 A3001 RMK AO2 SLP121 T01170006
KDEN 260253Z 10006KT 10SM FEW100 SCT220 16/M01 A2999 RMK AO2 SLP111 T01561006 53004
KDEN 260153Z 28008KT 10SM FEW100 SCT220 19/M01 A2998 RMK AO2 SLP103 T01941011
KDEN 260053Z 33004KT 10SM FEW100 FEW220 20/M02 A2997 RMK AO2 SLP102 T02001017
KDEN 252353Z 35009G18KT 10SM SCT090 21/M01 A2998 RMK AO2 SLP104 T02111011 10217 20156 58011
KDEN 252253Z 28011KT 10SM FEW090 21/M02 A2999 RMK AO2 SLP110 T02061017
KDEN 252153Z 34011G25KT 10SM SCT090 19/M02 A3001 RMK AO2 PK WND 34026/2107 SLP118 T01891022
KDEN 252053Z 36015G24KT 10SM SCT090 21/M03 A3002 RMK AO2 PK WND 34031/2024 SLP117 T02061028 56012
KDEN 251953Z 35016G23KT 10SM SCT075 19/M03 A3003 RMK AO2 PK WND 33029/1928 SLP122 T01941028
KDEN 251853Z 34014G27KT 10SM SCT070 18/M03 A3005 RMK AO2 PK WND 35028/1823 SLP132 T01781028
KDEN 251753Z 33014G22KT 10SM SCT055 SCT080 16/00 A3006 RMK AO2 SLP138 T01560000 10167 20050 58010
KDEN 251653Z 35011G20KT 10SM FEW040 FEW080 15/01 A3007 RMK AO2 SLP142 T01500011
KDEN 251553Z 35009KT 10SM FEW080 FEW220 13/02 A3009 RMK AO2 SLP154 T01280022
KDEN 251453Z 35009KT 10SM FEW080 FEW220 10/03 A3009 RMK AO2 SLP162 T01000028 51008
KDEN 251353Z 33006KT 10SM FEW080 FEW220 08/03 A3009 RMK AO2 SLP162 T00830028
KDEN 251253Z 29005KT 10SM FEW080 FEW220 07/03 A3009 RMK AO2 SLP161 T00670033
KDEN 251153Z 27007KT 10SM FEW100 05/03 A3007 RMK AO2 SLP155 T00500028 10072 20044 53002
KDEN 251053Z 26008KT 10SM FEW100 04/02 A3006 RMK AO2 SLP154 T00440022
KDEN 250953Z 34004KT 10SM FEW030 BKN090 06/03 A3006 RMK AO2 SLP151 T00560028
KDEN 250853Z 33003KT 10SM FEW033 BKN090 06/03 A3006 RMK AO2 SLP152 T00610028 56003
KDEN 250753Z 28004KT 10SM FEW033 BKN100 06/03 A3006 RMK AO2 SLP154 T00610028
KDEN 250653Z 30007KT 10SM FEW032 BKN100 07/03 A3005 RMK AO2 SLP150 T00670033 401110044
KDEN 250553Z 30010KT 10SM BKN032 BKN110 07/03 A3007 RMK AO2 SLP155 T00720033 10111 20067 50001
KDEN 250453Z 33010KT 10SM SCT032 BKN110 08/04 A3009 RMK AO2 SLP166 T00780039
KDEN 250353Z 00000KT 10SM FEW090 BKN120 BKN220 07/03 A3008 RMK AO2 SLP168 T00720028
KDEN 250253Z 05006KT 10SM FEW040 BKN100 BKN200 08/02 A3006 RMK AO2 SLP160 T00780022 53017
KDEN 250153Z 06005KT 10SM FEW035 SCT100 BKN160 BKN200 09/02 A3004 RMK AO2 SLP151 T00940022
KDEN 250053Z 06006KT 10SM SCT033 BKN110 BKN160 BKN200 11/03 A3002 RMK AO2 SLP140 T01060028
KDEN 242353Z 05004KT 10SM FEW029 BKN100 BKN200 11/02 A3000 RMK AO2 SLP136 T01110022 10111 20089 55001
KDEN 242253Z VRB04KT 10SM SCT028 BKN130 BKN200 11/03 A3000 RMK AO2 SLP135 T01060028
KDEN 242241Z 08003KT 10SM SCT028 BKN130 BKN200 11/03 A3000 RMK AO2 T01060033
KDEN 242153Z VRB04KT 10SM BKN023 BKN130 BKN200 11/04 A3000 RMK AO2 SLP135 T01060039
KDEN 242053Z 07006KT 10SM BKN023 BKN100 BKN200 10/04 A3001 RMK AO2 SLP137 T01000039 56009
KDEN 241953Z 07009KT 10SM BKN022 OVC100 09/04 A3001 RMK AO2 SLP139 T00940039
KDEN 241853Z 07007KT 040V110 10SM BKN022 BKN029 OVC100 09/04 A3002 RMK AO2 SLP140 T00940039
KDEN 241753Z 09006KT 10SM BKN018 OVC035 09/03 A3004 RMK AO2 SLP147 T00890033 10094 20044 55001
KDEN 241653Z 03004KT 10SM SCT013 BKN035 OVC110 08/03 A3004 RMK AO2 SLP147 T00780033
KDEN 241553Z 34004KT 10SM BKN008 OVC110 06/03 A3004 RMK AO2 SLP151 T00610033
KDEN 241453Z 04005KT 8SM OVC007 06/03 A3005 RMK AO2 SLP152 T00560033 53002
KDEN 241440Z 05007KT 8SM OVC007 06/03 A3005 RMK AO2 T00560033
KDEN 241414Z 05005KT 1 1/4SM OVC005 05/03 A3004 RMK AO2 SFC VIS 8 T00500033
KDEN 241353Z 03006KT 1 1/4SM OVC004 05/03 A3005 RMK AO2 SFC VIS 7 SLP148 T00500033
KDEN 241253Z 03009KT 1 1/4SM BR OVC003 04/03 A3004 RMK AO2 SFC VIS 4 SLP145 T00440033
KDEN 241250Z 03008KT 1 1/4SM BR OVC003 04/03 A3004 RMK AO2 SFC VIS 4
KDEN 241153Z 02005KT 1/2SM R35L/P6000FT BR OVC003 04/04 A3004 RMK AO2 SFC VIS 2 1/2 SLP140 T00440039 10067 20044 58001
KDEN 241140Z 03006KT 1/2SM R35L/P6000FT BR BKN003 OVC041 04/04 A3004 RMK AO2 SFC VIS 2 1/2 T00440039
KDEN 241133Z 03006KT 5SM BR BKN003 OVC041 04/04 A3004 RMK AO2 T00440039
KDEN 241111Z 35005KT 5SM BR FEW003 BKN045 BKN110 04/03 A3003 RMK AO2 T00440033
KDEN 241053Z 01008KT 2SM BR BKN003 OVC110 04/04 A3004 RMK AO2 SFC VIS 5 SLP137 T00440039
KDEN 241012Z 34009KT 2SM BR BKN004 BKN110 05/04 A3005 RMK AO2 SFC VIS 6 T00500039
KDEN 241006Z 34009KT 7SM BKN004 BKN110 05/04 A3005 RMK AO2 T00500039
KDEN 240953Z 34006KT 9SM SCT006 OVC100 05/04 A3005 RMK AO2 SLP141 T00500039
KDEN 240853Z 00000KT 10SM FEW035 BKN095 BKN160 06/04 A3004 RMK AO2 SLP135 T00560039 56007